Página principal
METAR-TAF:

METAR-TAF

Aeroportos :

Vieux-Fort, Santa Lúcia

latitude: 13-45N, longitude: 060-57W, altura: 3 m

Observação actual do tempo

O boletim foi feito há 37 minutos, às 14:00 UTC
Vento 16 kt de este
Temperatura 28°C
Humidade 70%
Pressão 1018 hPa
Visibilidade 10 km ou mais
Nuvens dispersasa uma altura de 2500 ft

METAR: TLPL 191400Z 09016KT 9999 SCT025 28/22 Q1018 NOSIG

Hora: 10:37 (14:37 UTC)

Previsão

O boletim foi feito há 3 horas e 37 minutos, às 11:00 UTC
Previsão válida de 19 às 12 UTC a 20 às 12 UTC
Vento 13 kt de este
Visibilidade 10 km ou mais
Nuvens dispersasa uma altura de 2500 ft
Probabilidade 40% :
Temporariamente
de 12 às 06 UTC a 12 às 12 UTC
aguaceiros de chuva

TAF: TLPL 191100Z 1912/2012 08013KT 9999 SCT025 PROB40 TEMPO 1206/1212 SHRA

Observações e previsões do tempo de mais de 4000 aeroportos (mensagens METAR e TAF).

As estações disponíveis são os pontos amarelos e vermelhos sobre o mapa.

Mova o rato sobre o mapa para ver o nome da estação.

Depois clique no ponto para visualizar as observações e previsões meteorológicas.

Para alterar o mapa : clique nos botões verdes com uma cruz preta para aumentar o zoom; no botão verde com uma pitada de zoom; ou nas setas verdes para mapas adjacentes.


METAR-TAF: